createdAt,value
2024-04-22T00:02:28.409Z,14.60
2024-04-22T00:05:15.885Z,13.93
2024-04-22T00:08:01.703Z,16.50
2024-04-22T00:10:47.459Z,15.88
2024-04-22T00:13:33.763Z,16.13
2024-04-22T00:16:21.422Z,19.50
2024-04-22T00:19:09.881Z,16.52
2024-04-22T00:21:55.583Z,11.20
2024-04-22T00:24:41.277Z,17.40
2024-04-22T00:27:26.808Z,17.08
2024-04-22T00:30:12.309Z,18.67
2024-04-22T00:32:58.222Z,13.30
2024-04-22T00:35:54.711Z,16.08
2024-04-22T00:38:40.281Z,13.07
2024-04-22T00:41:27.583Z,20.85
2024-04-22T00:44:13.879Z,15.90
2024-04-22T00:46:59.813Z,13.10
2024-04-22T00:49:45.953Z,15.90
2024-04-22T00:52:32.108Z,13.18
2024-04-22T00:55:17.831Z,14.02
2024-04-22T00:58:05.438Z,15.13
2024-04-22T01:00:52.948Z,20.15
2024-04-22T01:03:38.585Z,22.88
2024-04-22T01:06:24.031Z,14.88
2024-04-22T01:09:09.724Z,19.20
2024-04-22T01:11:55.189Z,20.98
2024-04-22T01:14:41.023Z,16.60
2024-04-22T01:17:40.573Z,15.85
2024-04-22T01:20:26.457Z,16.42
2024-04-22T01:23:12.391Z,11.18
2024-04-22T01:26:00.806Z,16.35
2024-04-22T01:28:46.700Z,15.43
2024-04-22T01:31:34.467Z,13.18
2024-04-22T01:34:20.488Z,12.40
2024-04-22T01:37:06.074Z,14.93
2024-04-22T01:39:51.914Z,10.90
2024-04-22T01:42:37.778Z,12.85
2024-04-22T01:45:23.525Z,18.98
2024-04-22T01:48:09.150Z,16.23
2024-04-22T01:50:54.804Z,14.70
2024-04-22T01:53:40.705Z,14.55
2024-04-22T01:56:26.149Z,15.43
2024-04-22T01:59:11.801Z,15.77
2024-04-22T02:01:57.302Z,14.10
2024-04-22T02:04:42.975Z,16.35
2024-04-22T02:07:28.905Z,12.68
2024-04-22T02:10:22.887Z,16.92
2024-04-22T02:13:10.000Z,13.35
2024-04-22T02:15:55.746Z,10.93
2024-04-22T02:18:41.305Z,9.82
2024-04-22T02:21:28.424Z,15.10
2024-04-22T02:24:14.051Z,13.73
2024-04-22T02:26:59.666Z,13.40
2024-04-22T02:29:45.256Z,11.23
2024-04-22T02:32:30.970Z,14.60
2024-04-22T02:35:16.554Z,8.95
2024-04-22T02:38:03.093Z,18.88
2024-04-22T02:40:49.126Z,13.90
2024-04-22T02:43:34.934Z,9.60
2024-04-22T02:46:20.609Z,17.45
2024-04-22T02:49:06.100Z,11.40
2024-04-22T02:51:51.747Z,18.05
2024-04-22T02:54:37.544Z,14.50
2024-04-22T02:57:22.922Z,13.90
2024-04-22T03:00:09.015Z,12.02
2024-04-22T03:02:55.597Z,15.82
2024-04-22T03:05:41.471Z,13.10
2024-04-22T03:08:27.273Z,13.30
2024-04-22T03:11:12.804Z,16.05
2024-04-22T03:13:58.414Z,14.50
2024-04-22T03:16:44.021Z,16.33
2024-04-22T03:19:29.624Z,13.25
2024-04-22T03:22:15.052Z,10.50
2024-04-22T03:25:01.255Z,17.15
2024-04-22T03:27:46.810Z,22.55
2024-04-22T03:30:32.397Z,15.10
2024-04-22T03:33:18.112Z,16.65
2024-04-22T03:36:04.824Z,13.93
2024-04-22T03:38:50.861Z,19.25
2024-04-22T03:41:37.302Z,10.85
2024-04-22T03:44:22.932Z,25.77
2024-04-22T03:47:27.043Z,9.50
2024-04-22T03:50:12.466Z,15.90
2024-04-22T03:52:59.185Z,15.75
2024-04-22T03:55:44.838Z,14.88
2024-04-22T03:58:30.589Z,12.52
2024-04-22T04:01:17.661Z,15.48
2024-04-22T04:04:03.625Z,12.18
2024-04-22T04:06:49.289Z,8.55
2024-04-22T04:09:35.513Z,14.65
2024-04-22T04:12:20.950Z,8.13
2024-04-22T04:15:06.757Z,9.20
2024-04-22T04:17:55.514Z,8.02
2024-04-22T04:20:41.786Z,15.52
2024-04-22T04:23:27.530Z,7.43
2024-04-22T04:26:13.056Z,11.98
2024-04-22T04:28:58.700Z,13.02
2024-04-22T04:31:44.260Z,11.23
2024-04-22T04:34:29.979Z,8.77
2024-04-22T04:37:15.766Z,14.65
2024-04-22T04:40:01.628Z,11.20
2024-04-22T04:42:47.450Z,9.82
2024-04-22T04:45:33.124Z,9.10
2024-04-22T04:48:19.654Z,14.80
2024-04-22T04:51:06.215Z,16.92
2024-04-22T04:53:51.993Z,13.43
2024-04-22T04:56:37.448Z,11.60
2024-04-22T04:59:23.169Z,10.43
2024-04-22T05:02:09.063Z,14.82
2024-04-22T05:04:54.886Z,11.43
2024-04-22T05:07:40.623Z,12.70
2024-04-22T05:10:26.471Z,7.82
2024-04-22T05:13:12.430Z,10.10
2024-04-22T05:15:57.904Z,11.77
2024-04-22T05:18:44.288Z,11.55
2024-04-22T05:21:30.681Z,15.23
2024-04-22T05:24:19.722Z,14.90
2024-04-22T05:27:05.837Z,10.02
2024-04-22T05:29:51.538Z,12.25
2024-04-22T05:32:38.361Z,13.20
2024-04-22T05:35:42.806Z,10.13
2024-04-22T05:38:28.375Z,12.63
2024-04-22T05:41:13.986Z,9.02
2024-04-22T05:43:59.715Z,15.63
2024-04-22T05:46:45.472Z,18.10
2024-04-22T05:49:30.997Z,9.40
2024-04-22T05:52:17.510Z,9.00
2024-04-22T05:55:05.538Z,14.20
2024-04-22T05:57:51.158Z,10.85
2024-04-22T06:00:36.751Z,12.23
2024-04-22T06:03:22.366Z,9.80
2024-04-22T06:06:07.829Z,12.52
2024-04-22T06:08:53.740Z,11.35
2024-04-22T06:11:48.787Z,12.98
2024-04-22T06:14:42.600Z,15.50
2024-04-22T06:17:28.381Z,15.75
2024-04-22T06:20:14.740Z,14.13
2024-04-22T06:23:00.799Z,16.92
2024-04-22T06:25:46.824Z,17.50
2024-04-22T06:28:33.597Z,14.43
2024-04-22T06:31:19.434Z,15.10
2024-04-22T06:34:04.985Z,13.15
2024-04-22T06:36:50.713Z,12.50
2024-04-22T06:39:36.419Z,12.15
2024-04-22T06:42:22.971Z,13.70
2024-04-22T06:45:08.981Z,13.30
2024-04-22T06:47:55.044Z,11.80
2024-04-22T06:50:43.507Z,14.65
2024-04-22T06:53:29.374Z,16.13
2024-04-22T06:56:15.016Z,11.63
2024-04-22T06:59:00.560Z,14.57
2024-04-22T07:01:46.346Z,13.82
2024-04-22T07:04:31.888Z,14.20
2024-04-22T07:07:17.506Z,14.20
2024-04-22T07:10:03.224Z,12.13
2024-04-22T07:12:48.868Z,12.60
2024-04-22T07:15:34.771Z,14.88
2024-04-22T07:18:20.513Z,14.82
2024-04-22T07:21:06.357Z,13.68
2024-04-22T07:23:52.121Z,12.93
2024-04-22T07:26:38.203Z,13.82
2024-04-22T07:29:24.020Z,12.70
2024-04-22T07:32:10.305Z,12.25
2024-04-22T07:34:56.216Z,16.95
2024-04-22T07:37:46.538Z,14.23
2024-04-22T07:40:32.870Z,14.38
2024-04-22T07:43:18.679Z,14.25
2024-04-22T07:46:04.357Z,18.50
2024-04-22T07:48:50.342Z,15.57
2024-04-22T07:51:39.020Z,9.82
2024-04-22T07:54:25.254Z,14.60
2024-04-22T07:57:11.532Z,14.18
2024-04-22T08:00:10.960Z,13.07
2024-04-22T08:02:57.249Z,10.00
2024-04-22T08:05:43.065Z,10.45
2024-04-22T08:08:31.728Z,16.50
2024-04-22T08:11:17.570Z,10.30
2024-04-22T08:14:03.341Z,11.63
2024-04-22T08:16:49.004Z,11.15
2024-04-22T08:19:34.876Z,9.82
2024-04-22T08:22:20.474Z,12.45
2024-04-22T08:25:06.556Z,11.98
2024-04-22T08:27:52.321Z,7.68
2024-04-22T08:30:41.211Z,13.00
2024-04-22T08:33:27.182Z,9.13
2024-04-22T08:36:15.049Z,11.88
2024-04-22T08:39:00.830Z,8.35
2024-04-22T08:41:46.927Z,13.35
2024-04-22T08:44:32.834Z,14.52
2024-04-22T08:47:18.832Z,11.25
2024-04-22T08:50:05.558Z,9.10
2024-04-22T08:52:56.235Z,9.75
2024-04-22T08:55:42.584Z,7.20
2024-04-22T08:58:28.432Z,10.25
2024-04-22T09:01:15.967Z,12.02
2024-04-22T09:04:01.556Z,7.43
2024-04-22T09:06:51.857Z,10.52
2024-04-22T09:09:47.948Z,12.75
2024-04-22T09:12:43.790Z,5.57
2024-04-22T09:15:30.117Z,9.90
2024-04-22T09:18:16.269Z,6.82
2024-04-22T09:21:09.707Z,8.70
2024-04-22T09:23:56.180Z,9.85
2024-04-22T09:26:42.618Z,7.28
2024-04-22T09:29:30.186Z,8.88
2024-04-22T09:32:18.610Z,6.63
2024-04-22T09:35:18.746Z,4.93
2024-04-22T09:38:05.753Z,6.53
2024-04-22T09:40:52.939Z,4.68
2024-04-22T09:43:43.045Z,8.27
2024-04-22T09:46:34.262Z,5.68
2024-04-22T09:49:20.601Z,4.60
2024-04-22T09:52:06.659Z,6.32
2024-04-22T09:54:52.430Z,11.02
2024-04-22T09:57:43.023Z,9.95
2024-04-22T10:00:28.630Z,8.68
2024-04-22T10:03:15.430Z,4.95
2024-04-22T10:06:04.768Z,11.13
2024-04-22T10:08:50.851Z,9.80
2024-04-22T10:11:38.195Z,12.75
2024-04-22T10:14:28.748Z,8.95
2024-04-22T10:17:14.450Z,7.50
2024-04-22T10:20:04.298Z,8.55
2024-04-22T10:22:51.240Z,7.05
2024-04-22T10:25:37.041Z,10.77
2024-04-22T10:28:22.480Z,9.10
2024-04-22T10:31:08.079Z,11.95
2024-04-22T10:33:53.750Z,5.13
2024-04-22T10:36:39.398Z,5.32
2024-04-22T10:39:25.002Z,13.10
2024-04-22T10:42:11.468Z,7.00
2024-04-22T10:44:57.640Z,7.47
2024-04-22T10:47:43.580Z,10.73
2024-04-22T10:50:29.140Z,6.90
2024-04-22T10:53:15.087Z,10.00
2024-04-22T10:56:00.699Z,8.45
2024-04-22T10:58:46.862Z,8.10
2024-04-22T11:01:32.609Z,10.23
2024-04-22T11:04:21.557Z,10.77
2024-04-22T11:07:08.051Z,8.90
2024-04-22T11:09:54.596Z,8.15
2024-04-22T11:12:41.098Z,8.75
2024-04-22T11:15:26.781Z,6.97
2024-04-22T11:18:12.427Z,7.72
2024-04-22T11:20:58.150Z,8.10
2024-04-22T11:23:43.965Z,7.75
2024-04-22T11:27:33.642Z,10.13
2024-04-22T11:30:20.700Z,8.05
2024-04-22T11:33:09.817Z,13.50
2024-04-22T11:35:55.596Z,8.40
2024-04-22T11:38:41.468Z,9.77
2024-04-22T11:41:27.344Z,13.20
2024-04-22T11:44:12.920Z,12.57
2024-04-22T11:46:58.626Z,13.13
2024-04-22T11:49:44.927Z,8.73
2024-04-22T11:52:30.458Z,5.85
2024-04-22T11:55:16.313Z,8.85
2024-04-22T11:58:02.161Z,9.48
2024-04-22T12:00:49.269Z,15.25
2024-04-22T12:03:36.431Z,11.15
2024-04-22T12:06:22.362Z,11.50
2024-04-22T12:09:10.070Z,7.40
2024-04-22T12:11:58.019Z,5.72
2024-04-22T12:14:43.925Z,7.45
2024-04-22T12:17:29.340Z,8.60
2024-04-22T12:20:16.075Z,9.27
2024-04-22T12:23:01.869Z,8.82
2024-04-22T12:25:47.639Z,8.70
2024-04-22T12:28:33.524Z,6.85
2024-04-22T12:31:19.204Z,10.52
2024-04-22T12:34:12.305Z,12.50
2024-04-22T12:37:00.211Z,6.63
2024-04-22T12:39:46.381Z,8.32
2024-04-22T12:42:33.405Z,9.18
2024-04-22T12:45:19.190Z,7.20
2024-04-22T12:48:23.842Z,10.57
2024-04-22T12:51:10.004Z,7.78
2024-04-22T12:53:55.546Z,7.32
2024-04-22T12:56:41.169Z,8.27
2024-04-22T12:59:26.824Z,7.45
2024-04-22T13:02:13.806Z,10.77
2024-04-22T13:05:00.914Z,12.65
2024-04-22T13:07:46.341Z,11.68
2024-04-22T13:10:32.096Z,8.40
2024-04-22T13:13:18.155Z,6.38
2024-04-22T13:16:04.119Z,5.68
2024-04-22T13:18:49.733Z,6.85
2024-04-22T13:21:35.400Z,5.82
2024-04-22T13:24:21.902Z,6.68
2024-04-22T13:27:08.762Z,5.75
2024-04-22T13:29:54.390Z,8.50
2024-04-22T13:32:42.316Z,5.45
2024-04-22T13:35:28.340Z,7.22
2024-04-22T13:38:13.848Z,2.78
2024-04-22T13:40:59.654Z,14.50
2024-04-22T13:43:45.778Z,18.02
2024-04-22T13:46:31.417Z,12.20
2024-04-22T13:49:18.134Z,6.85
2024-04-22T13:52:04.246Z,9.57
2024-04-22T13:54:50.346Z,17.75
2024-04-22T13:57:39.268Z,12.60
2024-04-22T14:00:24.982Z,6.63
2024-04-22T14:03:10.760Z,7.30
2024-04-22T14:05:56.551Z,6.80
2024-04-22T14:08:42.377Z,9.55
2024-04-22T14:11:28.290Z,8.50
2024-04-22T14:14:13.841Z,3.45
2024-04-22T14:17:01.010Z,4.50
2024-04-22T14:19:48.196Z,5.72
2024-04-22T14:22:33.790Z,8.57
2024-04-22T14:25:19.359Z,5.47
2024-04-22T14:28:05.207Z,8.93
2024-04-22T14:30:50.970Z,8.52
2024-04-22T14:33:36.711Z,7.28
2024-04-22T14:36:22.218Z,4.85
2024-04-22T14:39:07.920Z,7.35
2024-04-22T14:41:53.719Z,7.93
2024-04-22T14:44:41.532Z,8.85
2024-04-22T14:47:27.227Z,4.13
2024-04-22T14:50:13.016Z,6.97
2024-04-22T14:53:00.060Z,4.10
2024-04-22T14:55:46.787Z,7.85
2024-04-22T14:58:32.485Z,6.65
2024-04-22T15:01:18.246Z,5.70
2024-04-22T15:04:04.140Z,5.38
2024-04-22T15:06:51.639Z,4.45
2024-04-22T15:09:46.785Z,5.20
2024-04-22T15:12:32.917Z,3.83
2024-04-22T15:15:18.783Z,7.10
2024-04-22T15:18:04.620Z,6.15
2024-04-22T15:20:50.489Z,5.50
2024-04-22T15:23:37.213Z,4.85
2024-04-22T15:26:22.984Z,3.80
2024-04-22T15:29:08.453Z,3.55
2024-04-22T15:31:54.249Z,6.75
2024-04-22T15:34:41.881Z,5.13
2024-04-22T15:37:27.714Z,6.63
2024-04-22T15:40:13.366Z,4.03
2024-04-22T15:42:58.974Z,7.07
2024-04-22T15:45:44.525Z,5.70
2024-04-22T15:48:30.178Z,4.53
2024-04-22T15:51:16.606Z,3.97
2024-04-22T15:54:02.352Z,4.20
2024-04-22T15:56:47.986Z,4.78
2024-04-22T15:59:33.600Z,8.57
2024-04-22T16:02:19.114Z,7.40
2024-04-22T16:05:05.102Z,3.65
2024-04-22T16:07:51.038Z,5.80
2024-04-22T16:10:37.035Z,4.65
2024-04-22T16:13:23.079Z,5.38
2024-04-22T16:16:08.979Z,7.90
2024-04-22T16:18:54.889Z,5.78
2024-04-22T16:21:40.479Z,6.70
2024-04-22T16:24:26.133Z,3.85
2024-04-22T16:27:11.769Z,4.13
2024-04-22T16:29:57.341Z,4.00
2024-04-22T16:32:43.063Z,5.07
2024-04-22T16:35:28.703Z,5.97
2024-04-22T16:38:14.284Z,5.57
2024-04-22T16:40:59.852Z,4.55
2024-04-22T16:43:45.599Z,7.50
2024-04-22T16:46:31.238Z,5.93
2024-04-22T16:49:18.148Z,8.32
2024-04-22T16:52:04.585Z,3.90
2024-04-22T16:54:50.161Z,6.65
2024-04-22T16:57:35.739Z,3.08
2024-04-22T17:00:21.277Z,3.92
2024-04-22T17:03:06.963Z,4.60
2024-04-22T17:05:52.723Z,6.13
2024-04-22T17:08:38.411Z,5.28
2024-04-22T17:11:23.985Z,3.72
2024-04-22T17:14:09.509Z,4.07
2024-04-22T17:16:55.234Z,5.25
2024-04-22T17:19:41.182Z,6.93
2024-04-22T17:22:27.125Z,4.00
2024-04-22T17:25:13.084Z,6.47
2024-04-22T17:27:58.927Z,2.85
2024-04-22T17:30:49.030Z,4.47
2024-04-22T17:33:35.673Z,6.03
2024-04-22T17:36:21.257Z,5.47
2024-04-22T17:39:06.825Z,5.93
2024-04-22T17:41:52.321Z,4.75
2024-04-22T17:44:37.791Z,7.25
2024-04-22T17:47:23.433Z,6.88
2024-04-22T17:50:09.115Z,4.72
2024-04-22T17:52:55.658Z,5.13
2024-04-22T17:55:41.577Z,5.07
2024-04-22T17:58:27.251Z,6.93
2024-04-22T18:01:13.479Z,6.28
2024-04-22T18:04:00.365Z,4.60
2024-04-22T18:06:46.427Z,4.50
2024-04-22T18:09:32.740Z,7.85
2024-04-22T18:12:18.782Z,3.58
2024-04-22T18:15:04.718Z,8.48
2024-04-22T18:17:50.411Z,5.43
2024-04-22T18:20:35.982Z,5.47
2024-04-22T18:23:21.634Z,5.90
2024-04-22T18:26:13.269Z,6.40
2024-04-22T18:29:00.738Z,6.55
2024-04-22T18:31:47.200Z,5.78
2024-04-22T18:34:32.811Z,5.65
2024-04-22T18:37:18.617Z,5.43
2024-04-22T18:40:04.442Z,8.23
2024-04-22T18:42:50.473Z,5.43
2024-04-22T18:45:36.097Z,8.00
2024-04-22T18:48:21.726Z,6.70
2024-04-22T18:51:07.335Z,5.35
2024-04-22T18:53:52.932Z,8.63
2024-04-22T18:56:38.643Z,4.47
2024-04-22T18:59:24.756Z,7.85
2024-04-22T19:02:10.508Z,10.35
2024-04-22T19:04:57.146Z,7.18
2024-04-22T19:07:42.839Z,11.73
2024-04-22T19:10:28.352Z,10.32
2024-04-22T19:13:13.903Z,8.43
2024-04-22T19:15:59.387Z,9.05
2024-04-22T19:18:49.035Z,12.75
2024-04-22T19:21:36.087Z,13.80
2024-04-22T19:24:21.785Z,7.90
2024-04-22T19:27:08.386Z,7.55
2024-04-22T19:29:55.063Z,11.93
2024-04-22T19:32:41.063Z,8.27
2024-04-22T19:35:27.055Z,9.25
2024-04-22T19:38:12.863Z,7.80
2024-04-22T19:40:58.511Z,10.30
2024-04-22T19:43:44.133Z,9.45
2024-04-22T19:46:30.378Z,7.60
2024-04-22T19:49:16.738Z,11.95
2024-04-22T19:52:02.584Z,8.18
2024-04-22T19:54:48.642Z,9.70
2024-04-22T19:57:35.098Z,10.57
2024-04-22T20:00:21.113Z,7.57
2024-04-22T20:03:06.983Z,7.90
2024-04-22T20:05:52.814Z,15.02
2024-04-22T20:08:38.300Z,6.60
2024-04-22T20:11:24.358Z,8.52
2024-04-22T20:14:18.419Z,8.77
2024-04-22T20:17:11.783Z,8.00
2024-04-22T20:22:43.758Z,9.20
2024-04-22T20:25:29.549Z,8.18
2024-04-22T20:28:15.161Z,8.40
2024-04-22T20:31:02.490Z,9.20
2024-04-22T20:33:48.176Z,8.27
2024-04-22T20:36:34.135Z,6.78
2024-04-22T20:39:21.292Z,12.20
2024-04-22T20:42:07.203Z,8.70
2024-04-22T20:44:53.156Z,7.75
2024-04-22T20:47:39.361Z,12.25
2024-04-22T20:50:25.404Z,7.75
2024-04-22T20:53:11.782Z,8.18
2024-04-22T20:56:03.307Z,8.02
2024-04-22T20:58:49.286Z,8.85
2024-04-22T21:01:36.971Z,9.63
2024-04-22T21:04:22.961Z,6.68
2024-04-22T21:07:08.595Z,9.32
2024-04-22T21:09:54.353Z,8.75
2024-04-22T21:12:39.838Z,8.57
2024-04-22T21:15:25.556Z,7.30
2024-04-22T21:18:12.106Z,9.52
2024-04-22T21:20:57.811Z,12.85
2024-04-22T21:23:43.836Z,14.55
2024-04-22T21:26:30.240Z,14.18
2024-04-22T21:29:18.912Z,10.05
2024-04-22T21:32:05.391Z,9.75
2024-04-22T21:34:54.357Z,12.10
2024-04-22T21:37:40.115Z,9.65
2024-04-22T21:40:26.175Z,7.88
2024-04-22T21:43:12.157Z,10.98
2024-04-22T21:45:58.157Z,7.30
2024-04-22T21:48:44.140Z,9.88
2024-04-22T21:51:29.956Z,9.98
2024-04-22T21:54:20.477Z,11.43
2024-04-22T21:57:44.271Z,6.93
2024-04-22T22:01:07.997Z,8.07
2024-04-22T22:04:31.580Z,9.48
2024-04-22T22:07:21.479Z,6.47
2024-04-22T22:10:07.584Z,10.15
2024-04-22T22:12:53.449Z,10.73
2024-04-22T22:15:43.465Z,6.82
2024-04-22T22:18:29.440Z,8.70
2024-04-22T22:21:15.041Z,7.80
2024-04-22T22:24:00.667Z,10.20
2024-04-22T22:26:46.560Z,9.25
2024-04-22T22:29:32.540Z,8.75
2024-04-22T22:32:18.120Z,9.77
2024-04-22T22:35:04.542Z,8.35
2024-04-22T22:37:50.330Z,7.43
2024-04-22T22:40:35.703Z,5.60
2024-04-22T22:43:21.560Z,6.95
2024-04-22T22:46:06.962Z,9.23
2024-04-22T22:48:52.697Z,7.07
2024-04-22T22:51:38.125Z,6.43
2024-04-22T22:54:23.911Z,5.05
2024-04-22T22:57:09.885Z,6.38
2024-04-22T22:59:55.776Z,7.75
2024-04-22T23:02:41.437Z,6.85
2024-04-22T23:05:26.833Z,7.50
2024-04-22T23:08:12.946Z,9.55
2024-04-22T23:10:59.125Z,6.38
2024-04-22T23:13:44.966Z,6.47
2024-04-22T23:16:30.524Z,10.38
2024-04-22T23:19:16.125Z,7.78
2024-04-22T23:22:01.676Z,7.78
2024-04-22T23:24:47.461Z,8.45
2024-04-22T23:27:34.490Z,4.93
2024-04-22T23:30:20.118Z,8.15
2024-04-22T23:33:06.247Z,9.27
2024-04-22T23:35:51.759Z,7.38
2024-04-22T23:38:37.470Z,7.70
2024-04-22T23:41:22.903Z,8.15
2024-04-22T23:44:08.603Z,10.85
2024-04-22T23:46:55.865Z,7.70
2024-04-22T23:49:41.691Z,10.50
2024-04-22T23:52:27.749Z,7.43
2024-04-22T23:55:13.114Z,16.38
2024-04-22T23:57:58.576Z,10.95
